Selkirk, Canada
Current Conditions -  °F | °C
As of 6:00 AM on Wednesday 28 Jan 2015 (Local Time) from CYWG Reporting Station
Freezing Drizzle Freezing Drizzle  
Wind Chill: 21°   Ceiling: 300
Heat Index: 30°   Visibility: 1.2mi
Dew Point: 28°   Wind: 10mph
Humidity: 93%   Direction: 100°E
Pressure: 29.87"   Gusts: NA
Location:  50.15°N, 96.87°W
Report Text: CYWG 281200Z 10009KT 1 1/4SM -FZDZ BR OVC003 M01/M02 A2987 RMK ST8 RIME ON INDICATOR SLP128
Loading
Personal Weather Stations






























Interactive Weather Map New forecast layout! Learn more

10-Day Weather Forecast

Advertisements
Track Severe Weather on mobile